Time;durP1;ratioP1;P1;durP2;ratioP2;P2;SDS_P1;SDS_P2;PMS_P1;PMS_P2;Temp;Humidity;BMP_temperature;BMP_pressure;BME280_temperature;BME280_humidity;BME280_pressure;Samples;Min_cycle;Max_cycle;Signal;HPM_P1;HPM_P2
2022/08/29 00:01:35;;;;;;;17.35;6.53;;;;;;;16.12;70.94;102186.00;5056801;28;20076;-79
2022/08/29 00:04:01;;;;;;;22.90;6.90;;;;;;;16.14;70.95;102184.78;5057187;28;20028;-79
2022/08/29 00:06:27;;;;;;;36.78;6.70;;;;;;;16.11;70.88;102176.16;5057019;28;20044;-80
2022/08/29 00:08:52;;;;;;;18.83;6.32;;;;;;;16.08;71.00;102174.66;5056490;28;20452;-79
2022/08/29 00:11:18;;;;;;;25.08;6.18;;;;;;;16.10;71.04;102179.91;5057397;28;20131;-79
2022/08/29 00:13:43;;;;;;;24.70;6.55;;;;;;;16.04;71.15;102173.34;5039207;28;20086;-79
2022/08/29 00:16:09;;;;;;;28.90;6.53;;;;;;;16.02;71.53;102178.97;5058311;28;20085;-78
2022/08/29 00:18:34;;;;;;;21.92;5.82;;;;;;;16.02;71.32;102184.38;5057017;28;20059;-78
2022/08/29 00:21:01;;;;;;;26.40;5.90;;;;;;;15.99;71.20;102183.94;5039884;28;20032;-78
2022/08/29 00:23:26;;;;;;;18.73;5.53;;;;;;;15.94;71.47;102186.34;5039950;28;20364;-78
2022/08/29 00:25:52;;;;;;;17.83;5.95;;;;;;;15.94;71.74;102179.03;5057104;28;20085;-78
2022/08/29 00:28:17;;;;;;;25.33;5.38;;;;;;;15.89;71.64;102184.19;5055165;28;20035;-78
2022/08/29 00:30:43;;;;;;;16.92;4.53;;;;;;;15.85;71.71;102185.59;5058929;28;20170;-79
2022/08/29 00:33:08;;;;;;;14.85;5.00;;;;;;;15.82;72.27;102177.78;5040753;28;20029;-78
2022/08/29 00:35:36;;;;;;;18.95;4.97;;;;;;;15.82;71.92;102182.38;5058066;28;20091;-79
2022/08/29 00:38:04;;;;;;;18.15;4.50;;;;;;;15.81;71.91;102181.53;5040237;28;20025;-79
2022/08/29 00:40:35;;;;;;;11.55;3.75;;;;;;;15.81;71.82;102176.13;5055621;28;20021;-80
2022/08/29 00:43:00;;;;;;;18.58;4.03;;;;;;;15.79;72.00;102175.44;5055288;28;20468;-81
2022/08/29 00:45:26;;;;;;;17.55;4.10;;;;;;;15.73;72.06;102168.06;5035199;28;20029;-77
2022/08/29 00:47:55;;;;;;;11.55;3.60;;;;;;;15.68;72.51;102171.28;5035647;28;20036;-79
2022/08/29 00:50:32;;;;;;;17.95;3.88;;;;;;;15.66;73.02;102177.91;5034826;28;20036;-78
2022/08/29 00:52:58;;;;;;;17.25;4.20;;;;;;;15.66;73.23;102183.34;5034920;28;20029;-78
2022/08/29 00:55:26;;;;;;;12.20;3.80;;;;;;;15.66;73.08;102184.19;5034568;28;20013;-78
2022/08/29 00:57:58;;;;;;;10.73;3.65;;;;;;;15.63;73.18;102183.72;5018059;28;20467;-78
2022/08/29 01:00:24;;;;;;;12.70;3.90;;;;;;;15.60;73.42;102176.78;5052772;28;20032;-78
2022/08/29 01:02:50;;;;;;;13.13;3.83;;;;;;;15.57;73.26;102185.28;5052479;28;20025;-77
2022/08/29 01:05:16;;;;;;;11.50;3.95;;;;;;;15.52;73.13;102193.13;5034222;28;20021;-77
2022/08/29 01:07:42;;;;;;;10.73;3.30;;;;;;;15.49;73.63;102188.91;5034544;28;20031;-80
2022/08/29 01:10:09;;;;;;;20.30;3.72;;;;;;;15.45;73.67;102192.16;5034884;28;20049;-80
2022/08/29 01:12:34;;;;;;;15.93;3.88;;;;;;;15.40;73.76;102195.41;5052696;28;20025;-79
2022/08/29 01:15:03;;;;;;;21.83;4.15;;;;;;;15.36;74.07;102194.09;5052989;28;20036;-79
2022/08/29 01:17:31;;;;;;;15.07;3.38;;;;;;;15.32;74.25;102193.63;5052607;28;20029;-78
2022/08/29 01:20:26;;;;;;;15.55;3.75;;;;;;;15.29;74.43;102182.28;5034827;28;20025;-78
2022/08/29 01:23:04;;;;;;;19.15;3.38;;;;;;;15.23;74.51;102189.25;5048422;28;20045;-78
2022/08/29 01:25:35;;;;;;;10.82;4.45;;;;;;;15.20;74.81;102177.94;5034639;28;20438;-78
2022/08/29 01:28:08;;;;;;;21.15;4.30;;;;;;;15.20;75.20;102191.50;5052057;28;20064;-78
2022/08/29 01:30:34;;;;;;;16.08;3.95;;;;;;;15.18;75.66;102190.84;5034164;28;20028;-78
2022/08/29 01:32:59;;;;;;;13.30;3.53;;;;;;;15.16;75.48;102188.28;5052490;28;20017;-78
2022/08/29 01:35:26;;;;;;;11.20;4.03;;;;;;;15.13;75.36;102189.50;5034123;28;20057;-78
2022/08/29 01:37:51;;;;;;;12.98;4.03;;;;;;;15.13;75.49;102192.19;5033878;28;20060;-77
2022/08/29 01:40:17;;;;;;;15.07;3.80;;;;;;;15.10;75.45;102192.56;5055879;28;20370;-78
2022/08/29 01:42:43;;;;;;;12.60;3.63;;;;;;;15.10;75.27;102189.84;5056095;28;20033;-77
2022/08/29 01:45:09;;;;;;;11.80;3.47;;;;;;;15.10;75.10;102184.44;5056051;28;20033;-77
2022/08/29 01:47:35;;;;;;;12.93;3.35;;;;;;;15.09;74.77;102188.19;5056106;28;20037;-77
2022/08/29 01:50:02;;;;;;;16.33;3.70;;;;;;;15.05;74.79;102178.69;5055986;28;20025;-77
2022/08/29 01:52:27;;;;;;;13.63;3.70;;;;;;;15.05;75.17;102184.13;5055765;28;20032;-77
2022/08/29 01:54:53;;;;;;;24.50;3.67;;;;;;;15.03;75.20;102186.16;5055547;28;20037;-77
2022/08/29 01:57:18;;;;;;;7.85;3.05;;;;;;;15.04;75.16;102190.56;5056390;28;20032;-77
2022/08/29 01:59:44;;;;;;;11.68;3.00;;;;;;;15.04;74.86;102187.88;5061415;28;20025;-77
2022/08/29 02:02:23;;;;;;;16.02;3.47;;;;;;;15.00;74.80;102183.81;5060493;28;20391;-78
2022/08/29 02:04:48;;;;;;;14.52;3.78;;;;;;;14.97;74.89;102192.31;5056673;28;20051;-78
2022/08/29 02:07:16;;;;;;;17.17;3.60;;;;;;;14.97;75.30;102191.47;5099135;23;20565;-79
2022/08/29 02:09:42;;;;;;;23.77;3.22;;;;;;;14.96;75.21;102187.91;5009142;28;20038;-79
2022/08/29 02:12:08;;;;;;;9.40;3.20;;;;;;;14.95;75.31;102186.22;5017862;28;20036;-79
2022/08/29 02:14:34;;;;;;;9.70;3.15;;;;;;;14.93;74.88;102182.84;5000727;28;20029;-79
2022/08/29 02:17:01;;;;;;;25.25;3.40;;;;;;;14.87;74.56;102188.97;5016931;28;20072;-79
2022/08/29 02:19:27;;;;;;;11.13;2.93;;;;;;;14.87;74.97;102178.13;5016933;28;20045;-79
2022/08/29 02:21:52;;;;;;;13.32;3.75;;;;;;;14.88;75.59;102177.13;5034988;28;20036;-78
2022/08/29 02:24:17;;;;;;;8.25;3.08;;;;;;;14.88;75.51;102180.66;5016634;28;20168;-78
2022/08/29 02:26:43;;;;;;;9.85;3.67;;;;;;;14.87;75.54;102178.13;5014553;28;20082;-78
2022/08/29 02:29:10;;;;;;;14.23;3.30;;;;;;;14.87;76.13;102176.25;5036658;28;20450;-78
2022/08/29 02:31:39;;;;;;;10.43;3.65;;;;;;;14.84;75.88;102183.91;5017797;28;20250;-78
2022/08/29 02:34:05;;;;;;;13.85;3.90;;;;;;;14.83;76.33;102187.66;4997908;28;20131;-78
2022/08/29 02:36:30;;;;;;;12.93;3.78;;;;;;;14.83;76.49;102185.78;4997568;28;20036;-79
2022/08/29 02:38:56;;;;;;;7.43;3.03;;;;;;;14.85;76.71;102189.16;5021105;28;20420;-78
2022/08/29 02:41:21;;;;;;;14.93;3.25;;;;;;;14.83;76.45;102183.06;4996231;28;20438;-78
2022/08/29 02:43:47;;;;;;;19.85;3.97;;;;;;;14.80;76.26;102188.00;5030326;28;20033;-80
2022/08/29 02:46:15;;;;;;;18.33;4.10;;;;;;;14.75;77.14;102187.69;5034472;28;20025;-80
2022/08/29 02:48:42;;;;;;;9.10;3.45;;;;;;;14.73;77.42;102192.44;5015906;28;20497;-77
2022/08/29 02:51:08;;;;;;;12.83;3.60;;;;;;;14.67;77.50;102184.00;5004927;28;20053;-79
2022/08/29 02:53:34;;;;;;;13.93;4.32;;;;;;;14.66;77.77;102176.03;5021051;28;20296;-79
2022/08/29 02:55:59;;;;;;;14.45;4.13;;;;;;;14.62;77.63;102185.53;5033640;28;20056;-79
2022/08/29 02:58:25;;;;;;;14.65;4.43;;;;;;;14.59;77.78;102181.31;5010449;28;20054;-78
2022/08/29 03:00:51;;;;;;;14.93;4.13;;;;;;;14.59;78.23;102177.78;5030935;28;20029;-78
2022/08/29 03:03:16;;;;;;;9.68;4.38;;;;;;;14.57;78.47;102179.81;5016868;28;20029;-80
2022/08/29 03:05:42;;;;;;;11.35;3.80;;;;;;;14.51;78.01;102184.03;5035592;28;20060;-79
2022/08/29 03:08:10;;;;;;;10.80;3.38;;;;;;;14.47;78.36;102183.53;5034017;28;20523;-79
2022/08/29 03:10:35;;;;;;;;;;;;;;;14.42;78.59;102183.19;5032959;28;20033;-79
2022/08/29 03:13:01;;;;;;;9.65;4.18;;;;;;;14.38;78.51;102173.75;5016302;28;20288;-79
2022/08/29 03:15:26;;;;;;;24.35;4.25;;;;;;;14.35;79.06;102167.81;5020139;28;20030;-80
2022/08/29 03:17:52;;;;;;;18.83;4.00;;;;;;;14.31;79.21;102171.91;5039677;28;20033;-80
2022/08/29 03:20:19;;;;;;;18.13;3.75;;;;;;;14.28;79.69;102173.94;5041777;28;20426;-78
2022/08/29 03:22:45;;;;;;;14.20;4.22;;;;;;;14.27;79.72;102172.25;5028509;28;20025;-78
2022/08/29 03:25:11;;;;;;;18.80;4.20;;;;;;;14.26;79.88;102156.19;5016967;28;20453;-78
2022/08/29 03:27:38;;;;;;;12.15;4.30;;;;;;;14.22;80.55;102163.81;5033127;28;20029;-78
2022/08/29 03:30:05;;;;;;;19.92;4.78;;;;;;;14.19;80.68;102168.72;5005209;28;20117;-79
2022/08/29 03:32:31;;;;;;;20.85;5.40;;;;;;;14.15;80.72;102162.81;5026837;28;20025;-80
2022/08/29 03:34:56;;;;;;;18.92;4.88;;;;;;;14.10;81.55;102154.34;5015456;28;20030;-79
2022/08/29 03:37:22;;;;;;;28.23;5.40;;;;;;;14.03;81.85;102164.19;5034410;28;20052;-80
2022/08/29 03:39:47;;;;;;;23.13;5.65;;;;;;;14.01;82.39;102158.97;5017644;28;20025;-78
2022/08/29 03:42:12;;;;;;;22.75;5.35;;;;;;;14.00;82.75;102153.69;5000576;28;20037;-80
2022/08/29 03:44:39;;;;;;;29.50;5.63;;;;;;;14.02;82.76;102154.38;5033216;28;20061;-80
2022/08/29 03:47:05;;;;;;;29.25;5.60;;;;;;;14.01;82.70;102158.13;5034900;28;20076;-79
2022/08/29 03:49:30;;;;;;;25.58;5.28;;;;;;;14.02;82.80;102152.50;5019780;28;20398;-79
2022/08/29 03:51:56;;;;;;;21.52;5.93;;;;;;;14.02;82.52;102151.66;5016736;28;20056;-79
2022/08/29 03:54:22;;;;;;;21.25;5.97;;;;;;;14.00;82.56;102148.28;5016180;28;20342;-80
2022/08/29 03:56:48;;;;;;;33.78;7.15;;;;;;;14.03;82.43;102142.53;5016004;28;20037;-79
2022/08/29 03:59:15;;;;;;;16.20;5.88;;;;;;;14.01;82.41;102145.44;5015810;28;20018;-78
2022/08/29 04:01:40;;;;;;;22.45;5.68;;;;;;;13.99;82.27;102135.78;5015856;28;20330;-79
2022/08/29 04:04:05;;;;;;;20.88;5.68;;;;;;;14.01;82.46;102141.88;5033749;28;20057;-79
2022/08/29 04:06:32;;;;;;;25.30;6.32;;;;;;;13.96;82.21;102141.56;5034427;28;20045;-79
2022/08/29 04:08:58;;;;;;;20.95;6.35;;;;;;;13.92;82.31;102145.59;5017481;28;20393;-79
2022/08/29 04:11:24;;;;;;;19.27;5.90;;;;;;;13.90;83.17;102143.09;5000659;28;20025;-78
2022/08/29 04:13:51;;;;;;;17.17;6.38;;;;;;;13.87;83.01;102146.09;5018445;28;20453;-77
2022/08/29 04:16:21;;;;;;;17.83;6.00;;;;;;;13.86;83.01;102147.13;5003042;28;20117;-79
2022/08/29 04:18:47;;;;;;;18.15;5.72;;;;;;;13.88;83.25;102155.09;5026841;28;20030;-78
2022/08/29 04:21:12;;;;;;;21.17;6.13;;;;;;;13.88;83.12;102147.81;5028443;28;20030;-79
2022/08/29 04:23:38;;;;;;;27.88;7.68;;;;;;;13.88;82.84;102153.22;5047421;28;20036;-79
2022/08/29 04:26:04;;;;;;;25.17;5.97;;;;;;;13.88;82.93;102155.94;5016008;28;20033;-79
2022/08/29 04:28:30;;;;;;;17.75;5.68;;;;;;;13.88;82.83;102160.50;5028830;28;20033;-79
2022/08/29 04:30:55;;;;;;;19.00;6.68;;;;;;;13.87;83.04;102154.22;5045695;28;20056;-79
2022/08/29 04:33:23;;;;;;;23.13;6.80;;;;;;;13.89;82.85;102167.59;5049195;28;20135;-78
2022/08/29 04:35:48;;;;;;;34.57;6.67;;;;;;;13.92;83.10;102167.25;5025856;28;20029;-79
2022/08/29 04:38:14;;;;;;;20.83;6.00;;;;;;;13.92;82.69;102169.97;5025626;28;20340;-80
2022/08/29 04:40:41;;;;;;;21.67;5.50;;;;;;;13.97;82.51;102175.72;5018325;28;20032;-81
2022/08/29 04:43:07;;;;;;;17.80;6.28;;;;;;;14.00;82.54;102165.38;5003639;28;20167;-79
2022/08/29 04:45:34;;;;;;;19.00;5.93;;;;;;;14.04;82.54;102169.44;5003480;28;20036;-80
2022/08/29 04:48:00;;;;;;;19.88;5.60;;;;;;;14.09;82.27;102174.34;5040479;28;20100;-79
2022/08/29 04:50:25;;;;;;;25.92;6.03;;;;;;;14.15;82.25;102173.63;5024004;28;20084;-80
2022/08/29 04:52:51;;;;;;;28.42;5.85;;;;;;;14.21;81.84;102177.50;5017625;28;20436;-80
2022/08/29 04:55:17;;;;;;;24.92;6.03;;;;;;;14.30;81.78;102184.59;4999316;28;20037;-81
2022/08/29 04:57:43;;;;;;;20.98;6.20;;;;;;;14.38;81.47;102186.44;5001024;28;20025;-79
2022/08/29 05:00:12;;;;;;;24.55;5.82;;;;;;;14.43;80.93;102181.34;5023163;28;20025;-79
2022/08/29 05:02:39;;;;;;;26.70;6.15;;;;;;;14.48;80.79;102184.34;5014295;28;20030;-80
2022/08/29 05:05:05;;;;;;;31.20;7.50;;;;;;;14.51;80.72;102186.75;5030087;28;20034;-79
2022/08/29 05:07:31;;;;;;;24.50;6.22;;;;;;;14.56;80.76;102186.22;5033492;28;20045;-81
2022/08/29 05:10:00;;;;;;;16.30;6.10;;;;;;;14.62;80.23;102185.53;5033482;28;20029;-81
2022/08/29 05:12:28;;;;;;;23.38;6.43;;;;;;;14.67;80.10;102186.69;5017195;28;20401;-80
2022/08/29 05:14:53;;;;;;;;;;;;;;;14.71;79.90;102190.72;5035178;28;20030;-79
2022/08/29 05:17:19;;;;;;;20.25;5.43;;;;;;;14.73;79.34;102198.69;5037531;28;20277;-80
2022/08/29 05:19:44;;;;;;;25.83;6.78;;;;;;;14.75;79.71;102199.38;4999847;28;20043;-84
2022/08/29 05:22:11;;;;;;;24.63;6.45;;;;;;;14.81;79.63;102203.25;5026805;28;20025;-82
2022/08/29 05:24:37;;;;;;;21.88;6.60;;;;;;;14.87;79.49;102199.81;5035633;28;20026;-81
2022/08/29 05:27:09;;;;;;;23.45;6.53;;;;;;;14.91;79.02;102204.72;5040538;28;20029;-83
2022/08/29 05:29:40;;;;;;;27.55;6.28;;;;;;;14.94;78.32;102195.38;5036324;28;20033;-81
2022/08/29 05:32:09;;;;;;;17.77;6.18;;;;;;;14.97;78.02;102203.16;5031306;28;20133;-80
2022/08/29 05:34:39;;;;;;;20.83;5.75;;;;;;;14.98;77.39;102203.97;4991407;28;20037;-80
2022/08/29 05:37:06;;;;;;;23.70;7.30;;;;;;;15.02;77.21;102208.03;5038708;28;20025;-79
2022/08/29 05:39:33;;;;;;;22.05;6.03;;;;;;;15.07;77.30;102209.19;5020438;28;20033;-80
2022/08/29 05:41:58;;;;;;;13.93;6.18;;;;;;;15.15;77.37;102209.16;5022251;28;20045;-80
2022/08/29 05:44:26;;;;;;;23.60;5.55;;;;;;;15.22;76.89;102208.41;5037868;28;20029;-80
2022/08/29 05:46:51;;;;;;;26.55;5.72;;;;;;;15.28;76.78;102197.72;5038212;28;20057;-79
2022/08/29 05:49:16;;;;;;;27.40;6.10;;;;;;;15.37;76.73;102207.47;5038053;28;20453;-79
2022/08/29 05:51:42;;;;;;;37.33;8.20;;;;;;;15.45;75.90;102209.28;5039239;28;20319;-79
2022/08/29 05:54:07;;;;;;;25.40;7.18;;;;;;;15.52;75.61;102210.25;5017678;28;20045;-80
2022/08/29 05:56:33;;;;;;;46.72;7.03;;;;;;;15.62;75.31;102211.88;5029211;28;20059;-81
2022/08/29 05:58:59;;;;;;;57.13;8.10;;;;;;;15.67;74.39;102206.75;5032255;28;20060;-81
2022/08/29 06:01:31;;;;;;;51.42;8.23;;;;;;;15.67;74.15;102212.19;5025013;28;20029;-82
2022/08/29 06:03:57;;;;;;;46.25;8.45;;;;;;;15.74;74.71;102218.59;5019237;28;20032;-81
2022/08/29 06:06:24;;;;;;;41.55;7.05;;;;;;;15.79;74.77;102217.00;5039909;28;20049;-80
2022/08/29 06:08:51;;;;;;;50.58;7.53;;;;;;;15.86;74.71;102213.59;5047175;28;20017;-81
2022/08/29 06:11:19;;;;;;;38.67;7.60;;;;;;;15.92;74.44;102210.13;5020334;28;20025;-81
2022/08/29 06:13:44;;;;;;;34.60;6.65;;;;;;;16.03;74.03;102215.09;5046268;28;20064;-80
2022/08/29 06:16:15;;;;;;;45.25;7.95;;;;;;;16.18;74.33;102212.41;5025584;28;20071;-81
2022/08/29 06:18:40;;;;;;;24.77;6.40;;;;;;;16.33;73.31;102210.56;5012417;28;20048;-80
2022/08/29 06:21:07;;;;;;;24.00;6.25;;;;;;;16.45;71.80;102211.75;5036844;28;20021;-84
2022/08/29 06:23:33;;;;;;;21.23;6.03;;;;;;;16.54;71.45;102203.53;5052733;28;20028;-82
2022/08/29 06:25:58;;;;;;;36.13;7.93;;;;;;;16.62;70.92;102206.16;5033191;28;20080;-82
2022/08/29 06:28:30;;;;;;;23.50;5.93;;;;;;;16.72;70.75;102205.84;5014840;28;20029;-83
2022/08/29 06:30:56;;;;;;;18.58;5.47;;;;;;;16.74;70.76;102204.63;5056342;28;20017;-84
2022/08/29 06:33:22;;;;;;;24.17;5.65;;;;;;;16.80;71.26;102209.34;5039299;28;20064;-84
2022/08/29 06:35:47;;;;;;;32.90;6.13;;;;;;;16.84;70.21;102199.75;5040494;28;20045;-84
2022/08/29 06:38:13;;;;;;;27.13;5.75;;;;;;;16.81;69.84;102200.16;5026328;28;20041;-84
2022/08/29 06:40:38;;;;;;;28.10;5.90;;;;;;;16.79;69.93;102213.09;5023104;28;20034;-83
2022/08/29 06:43:03;;;;;;;39.10;6.55;;;;;;;16.84;70.08;102213.34;5034800;28;20097;-82
2022/08/29 06:45:29;;;;;;;23.05;5.07;;;;;;;16.96;68.87;102223.78;5035388;28;20025;-81
2022/08/29 06:47:54;;;;;;;24.10;5.45;;;;;;;16.97;68.37;102225.44;5059923;28;20025;-81
2022/08/29 06:50:20;;;;;;;27.25;5.18;;;;;;;16.89;68.10;102226.41;5045157;28;20111;-78
2022/08/29 06:52:45;;;;;;;25.27;6.00;;;;;;;17.21;68.46;102219.66;5019808;28;20018;-79
2022/08/29 06:55:11;;;;;;;22.95;4.82;;;;;;;17.30;67.63;102221.22;5035476;28;20037;-81
2022/08/29 06:57:44;;;;;;;28.90;5.25;;;;;;;17.40;66.96;102225.50;5032888;28;20033;-79
2022/08/29 07:00:12;;;;;;;21.17;4.88;;;;;;;17.55;66.16;102223.56;5037578;28;20029;-84
2022/08/29 07:02:37;;;;;;;;;;;;;;;17.77;65.00;102230.69;5040239;28;20056;-84
2022/08/29 07:05:04;;;;;;;13.55;4.60;;;;;;;17.75;64.04;102227.31;5043837;28;20325;-85
2022/08/29 07:07:30;;;;;;;28.83;4.70;;;;;;;17.93;63.18;102234.19;5039641;28;20107;-84
2022/08/29 07:09:55;;;;;;;24.27;4.85;;;;;;;18.17;62.34;102233.78;5041508;28;20029;-83
2022/08/29 07:12:22;;;;;;;28.00;5.82;;;;;;;18.70;59.85;102235.16;5013618;28;20556;-81
2022/08/29 07:14:47;;;;;;;24.55;4.95;;;;;;;18.63;58.95;102233.22;5016097;28;20036;-82
2022/08/29 07:17:13;;;;;;;23.23;5.82;;;;;;;18.72;58.92;102235.75;4998509;28;20018;-81
2022/08/29 07:19:38;;;;;;;21.30;5.82;;;;;;;19.15;57.61;102239.13;5028331;28;20053;-80
2022/08/29 07:22:03;;;;;;;26.60;6.13;;;;;;;19.36;56.90;102235.41;5033235;28;20025;-81
2022/08/29 07:24:29;;;;;;;22.33;5.88;;;;;;;19.37;55.50;102239.00;5029791;28;20061;-82
2022/08/29 07:26:54;;;;;;;29.80;6.25;;;;;;;19.20;54.50;102233.91;5020680;28;20081;-82
2022/08/29 07:29:21;;;;;;;28.50;5.40;;;;;;;18.93;54.41;102232.97;5000475;28;20112;-84
2022/08/29 07:31:47;;;;;;;17.75;4.57;;;;;;;18.96;54.44;102232.56;5028030;28;20025;-83
2022/08/29 07:34:12;;;;;;;22.27;5.13;;;;;;;18.78;54.05;102229.56;5060144;28;20078;-84
2022/08/29 07:36:38;;;;;;;17.27;5.03;;;;;;;18.35;55.39;102233.28;5022725;28;20041;-84
2022/08/29 07:39:08;;;;;;;23.23;5.60;;;;;;;18.10;53.75;102226.59;5006235;28;20454;-80
2022/08/29 07:41:33;;;;;;;20.00;5.45;;;;;;;18.05;54.58;102224.44;5036659;28;20358;-82
2022/08/29 07:43:58;;;;;;;20.35;5.18;;;;;;;18.11;55.81;102220.09;5017265;28;20084;-80
2022/08/29 07:46:25;;;;;;;22.83;5.38;;;;;;;18.11;56.10;102228.25;5040908;28;20342;-81
2022/08/29 07:48:51;;;;;;;21.08;5.15;;;;;;;18.31;56.91;102236.59;5030797;28;20067;-80
2022/08/29 07:51:19;;;;;;;23.85;5.80;;;;;;;18.43;56.26;102224.94;5022548;28;20052;-81
2022/08/29 07:53:45;;;;;;;23.85;5.18;;;;;;;18.75;56.79;102232.69;5032471;28;20477;-83
2022/08/29 07:56:17;;;;;;;22.83;5.13;;;;;;;18.94;55.76;102234.66;5020437;28;20477;-82
2022/08/29 07:58:43;;;;;;;25.70;5.93;;;;;;;19.24;54.98;102226.16;5019526;28;20446;-81
2022/08/29 08:01:08;;;;;;;22.33;4.95;;;;;;;19.80;53.73;102225.00;5035933;28;20034;-83
2022/08/29 08:03:34;;;;;;;23.40;5.15;;;;;;;20.14;53.60;102219.31;5012661;28;20057;-85
2022/08/29 08:06:01;;;;;;;29.55;5.95;;;;;;;20.29;51.87;102210.88;5020556;28;20073;-85
2022/08/29 08:08:26;;;;;;;16.80;5.25;;;;;;;20.43;52.43;102210.84;5019926;28;20072;-83
2022/08/29 08:10:52;;;;;;;24.00;6.00;;;;;;;20.67;50.50;102218.38;5012403;28;20060;-82
2022/08/29 08:13:18;;;;;;;26.83;6.28;;;;;;;20.87;51.21;102229.25;5040474;28;20428;-83
2022/08/29 08:15:44;;;;;;;21.65;5.68;;;;;;;21.88;49.32;102227.59;5020007;28;20030;-80
2022/08/29 08:18:09;;;;;;;23.80;6.35;;;;;;;22.76;46.54;102227.34;5016735;28;20080;-80
2022/08/29 08:20:35;;;;;;;18.92;5.35;;;;;;;23.32;45.01;102233.59;5016106;28;20481;-81
2022/08/29 08:23:00;;;;;;;22.27;5.30;;;;;;;23.27;43.97;102238.13;5034428;28;20080;-81
2022/08/29 08:25:26;;;;;;;19.50;5.60;;;;;;;22.90;45.49;102228.00;5044127;28;20050;-82
2022/08/29 08:27:52;;;;;;;19.08;5.93;;;;;;;23.52;43.40;102230.56;5038645;28;20038;-83
2022/08/29 08:30:18;;;;;;;24.50;5.38;;;;;;;23.42;43.10;102239.38;5025122;28;20195;-83
2022/08/29 08:32:44;;;;;;;18.52;5.43;;;;;;;23.69;41.88;102230.72;5012707;28;20036;-83
2022/08/29 08:35:11;;;;;;;22.52;5.60;;;;;;;23.48;41.84;102234.00;5006244;28;20478;-82
2022/08/29 08:37:37;;;;;;;20.13;5.57;;;;;;;23.04;42.88;102228.72;5003335;28;20029;-82
2022/08/29 08:40:04;;;;;;;22.65;5.70;;;;;;;22.76;43.78;102224.59;5019067;28;20288;-84
2022/08/29 08:42:43;;;;;;;15.90;5.65;;;;;;;22.54;44.02;102237.13;5000275;28;20578;-83
2022/08/29 08:45:11;;;;;;;19.05;5.35;;;;;;;22.31;44.88;102235.88;5034757;28;20389;-83
2022/08/29 08:47:50;;;;;;;16.27;5.05;;;;;;;22.38;45.61;102240.44;5033428;28;20070;-82
2022/08/29 08:50:27;;;;;;;15.43;4.97;;;;;;;22.36;45.85;102243.44;5035513;28;20036;-82
2022/08/29 08:53:13;;;;;;;20.45;5.28;;;;;;;22.50;45.99;102241.38;5004185;28;20064;-81
2022/08/29 08:55:48;;;;;;;17.20;5.10;;;;;;;23.30;44.11;102254.13;5033792;28;20061;-81
2022/08/29 08:58:24;;;;;;;18.63;4.82;;;;;;;24.04;41.07;102249.19;5033586;28;20057;-81
2022/08/29 09:01:09;;;;;;;24.52;5.25;;;;;;;23.94;41.44;102243.47;4995272;28;20090;-83
2022/08/29 09:04:02;;;;;;;24.40;4.90;;;;;;;23.29;41.63;102249.72;5020260;28;20026;-80
2022/08/29 09:06:34;;;;;;;21.75;5.10;;;;;;;22.95;42.69;102249.28;5020123;28;20053;-80
2022/08/29 09:09:30;;;;;;;17.13;4.82;;;;;;;22.76;43.43;102245.72;5020149;28;20144;-81
2022/08/29 09:12:20;;;;;;;23.60;5.07;;;;;;;22.96;43.71;102249.09;5039770;28;20117;-81
2022/08/29 09:14:56;;;;;;;20.55;4.45;;;;;;;22.89;43.20;102242.00;5041183;28;20029;-80
2022/08/29 09:17:35;;;;;;;12.95;4.72;;;;;;;22.95;43.18;102247.38;5020094;28;20029;-81
2022/08/29 09:20:04;;;;;;;17.65;5.18;;;;;;;22.98;43.21;102246.09;5029205;28;20033;-81
2022/08/29 09:22:30;;;;;;;15.43;4.60;;;;;;;22.93;42.63;102246.78;5030811;28;20033;-81
2022/08/29 09:25:02;;;;;;;20.75;5.03;;;;;;;22.95;42.48;102252.88;5050027;28;20118;-80
2022/08/29 09:27:30;;;;;;;16.50;5.00;;;;;;;22.83;43.02;102248.38;5045464;28;20021;-81
2022/08/29 09:30:07;;;;;;;16.73;5.28;;;;;;;22.72;43.42;102252.72;5024558;28;20491;-79
2022/08/29 09:32:34;;;;;;;17.27;4.60;;;;;;;22.49;44.10;102248.78;5019323;28;20040;-82
2022/08/29 09:34:59;;;;;;;18.88;5.13;;;;;;;22.23;43.09;102249.03;5018199;28;20025;-80
2022/08/29 09:37:31;;;;;;;12.55;4.13;;;;;;;22.35;43.40;102249.97;5017383;28;20675;-81
2022/08/29 09:40:01;;;;;;;16.60;4.60;;;;;;;22.57;43.35;102251.22;5005474;28;20377;-80
2022/08/29 09:42:35;;;;;;;18.92;4.85;;;;;;;22.08;44.52;102236.47;5017447;28;20025;-81
2022/08/29 09:45:17;;;;;;;19.92;5.13;;;;;;;22.25;44.48;102246.91;5018235;28;20022;-80
2022/08/29 09:47:43;;;;;;;20.10;5.70;;;;;;;22.23;44.56;102249.03;5039434;28;20405;-79
2022/08/29 09:50:23;;;;;;;16.00;5.22;;;;;;;22.12;44.45;102254.16;4995331;28;20032;-80
2022/08/29 09:52:56;;;;;;;17.77;4.30;;;;;;;21.60;44.49;102245.31;5032469;28;20116;-81
2022/08/29 09:55:41;;;;;;;16.92;4.50;;;;;;;21.05;45.98;102242.22;5039359;28;20120;-79
2022/08/29 09:58:16;;;;;;;18.33;5.50;;;;;;;20.92;46.87;102229.44;5008800;28;20025;-81
2022/08/29 10:01:00;;;;;;;17.38;4.75;;;;;;;20.94;46.93;102235.53;5025544;28;20029;-83
2022/08/29 10:03:26;;;;;;;18.10;4.43;;;;;;;20.72;46.31;102235.00;5040549;28;20031;-81
2022/08/29 10:06:07;;;;;;;10.13;4.18;;;;;;;20.71;46.39;102236.03;5002663;28;20117;-81
2022/08/29 10:08:35;;;;;;;16.77;4.45;;;;;;;20.89;46.46;102242.72;5014519;28;20034;-80
2022/08/29 10:11:07;;;;;;;13.00;3.95;;;;;;;20.82;46.37;102242.72;5036383;28;20026;-83
2022/08/29 10:13:48;;;;;;;17.27;3.67;;;;;;;20.75;46.50;102245.50;5022844;28;20025;-81
2022/08/29 10:16:15;;;;;;;15.82;3.90;;;;;;;20.50;47.13;102244.50;5024008;28;20033;-81
2022/08/29 10:18:43;;;;;;;11.80;4.63;;;;;;;20.41;48.75;102246.63;5017794;28;20044;-81
2022/08/29 10:21:09;;;;;;;16.92;4.03;;;;;;;20.54;48.43;102248.53;5041234;28;20036;-80
2022/08/29 10:23:43;;;;;;;16.92;4.22;;;;;;;20.59;48.94;102252.28;5043042;28;20025;-81
2022/08/29 10:26:19;;;;;;;15.80;3.72;;;;;;;20.79;49.49;102244.00;5026014;28;20101;-82
2022/08/29 10:28:55;;;;;;;19.63;4.45;;;;;;;20.74;49.08;102241.06;5039668;28;20088;-81
2022/08/29 10:31:34;;;;;;;19.02;4.53;;;;;;;20.89;48.95;102234.50;5042926;28;20029;-81
2022/08/29 10:34:51;;;;;;;16.02;4.50;;;;;;;20.85;49.13;102242.28;5022825;28;20025;-82
2022/08/29 10:37:27;;;;;;;;;;;;;;;20.92;49.72;102243.13;4963546;28;20049;-80
2022/08/29 10:39:59;;;;;;;18.00;4.35;;;;;;;20.90;50.37;102234.28;5021817;28;19917;-82
2022/08/29 10:42:25;;;;;;;20.42;4.80;;;;;;;21.00;49.40;102229.19;5023163;28;20057;-83
2022/08/29 10:45:06;;;;;;;12.00;3.60;;;;;;;21.12;49.34;102232.09;5024610;28;20665;-81
2022/08/29 10:47:43;;;;;;;20.73;4.20;;;;;;;21.66;49.25;102233.44;5027328;28;20061;-80
2022/08/29 10:50:21;;;;;;;15.13;3.65;;;;;;;21.89;47.22;102230.09;5040285;28;20025;-82
2022/08/29 10:52:59;;;;;;;14.20;4.03;;;;;;;22.16;47.03;102223.56;5038654;28;20692;-82
2022/08/29 10:55:47;;;;;;;11.38;3.47;;;;;;;22.25;45.61;102224.94;5048026;28;20033;-81
2022/08/29 10:58:40;;;;;;;17.13;4.10;;;;;;;22.20;46.54;102222.09;5036052;28;20092;-82
2022/08/29 11:01:26;;;;;;;20.05;4.38;;;;;;;22.10;46.51;102228.03;5019482;28;20022;-84
2022/08/29 11:04:03;;;;;;;19.20;3.75;;;;;;;21.87;47.58;102226.75;5041190;28;20087;-81
2022/08/29 11:06:34;;;;;;;;;;;;;;;21.75;46.91;102214.00;5041475;28;20060;-82
2022/08/29 11:09:30;;;;;;;14.95;4.65;;;;;;;21.58;48.38;102217.28;5023693;28;19913;-81
2022/08/29 11:12:11;;;;;;;15.00;3.90;;;;;;;21.63;48.48;102211.16;5020761;28;20037;-80
2022/08/29 11:14:43;;;;;;;25.23;4.75;;;;;;;21.83;47.10;102216.47;5045254;28;20280;-80
2022/08/29 11:17:12;;;;;;;14.93;4.20;;;;;;;22.04;48.17;102210.59;5023466;28;20049;-81
2022/08/29 11:19:44;;;;;;;14.73;4.10;;;;;;;22.48;46.30;102221.56;5039609;28;20029;-81
2022/08/29 11:22:19;;;;;;;15.38;3.95;;;;;;;22.94;46.16;102214.69;5011025;28;20404;-81
2022/08/29 11:24:54;;;;;;;13.73;4.35;;;;;;;23.55;44.79;102215.53;5021286;28;20029;-81
2022/08/29 11:27:53;;;;;;;17.83;4.43;;;;;;;23.97;42.63;102210.00;5007847;28;20456;-79